sensor_id;sensor_type;location;lat;lon;timestamp;pressure;altitude;pressure_sealevel;temperature;humidity
11268;BME280;72685;47.474;9.416;2024-01-11T00:00:14;96179.81;;;-1.31;100.00
11268;BME280;72685;47.474;9.416;2024-01-11T00:02:39;96183.03;;;-1.29;100.00
11268;BME280;72685;47.474;9.416;2024-01-11T00:05:06;96181.84;;;-1.33;100.00
11268;BME280;72685;47.474;9.416;2024-01-11T00:07:32;96174.78;;;-1.32;100.00
11268;BME280;72685;47.474;9.416;2024-01-11T00:09:57;96175.84;;;-1.40;100.00
11268;BME280;72685;47.474;9.416;2024-01-11T00:12:22;96181.28;;;-1.35;100.00
11268;BME280;72685;47.474;9.416;2024-01-11T00:14:48;96188.47;;;-1.30;100.00
11268;BME280;72685;47.474;9.416;2024-01-11T00:17:13;96183.56;;;-1.20;100.00
11268;BME280;72685;47.474;9.416;2024-01-11T00:19:38;96180.19;;;-1.27;100.00
11268;BME280;72685;47.474;9.416;2024-01-11T00:22:04;96181.75;;;-1.20;100.00
11268;BME280;72685;47.474;9.416;2024-01-11T00:24:29;96192.44;;;-1.21;100.00
11268;BME280;72685;47.474;9.416;2024-01-11T00:26:55;96186.94;;;-1.13;100.00
11268;BME280;72685;47.474;9.416;2024-01-11T00:29:20;96184.22;;;-1.25;100.00
11268;BME280;72685;47.474;9.416;2024-01-11T00:31:45;96181.59;;;-1.25;100.00
11268;BME280;72685;47.474;9.416;2024-01-11T00:34:11;96178.22;;;-1.32;100.00
11268;BME280;72685;47.474;9.416;2024-01-11T00:36:36;96181.28;;;-1.35;100.00
11268;BME280;72685;47.474;9.416;2024-01-11T00:39:02;96179.47;;;-1.34;100.00
11268;BME280;72685;47.474;9.416;2024-01-11T00:41:27;96176.09;;;-1.41;100.00
11268;BME280;72685;47.474;9.416;2024-01-11T00:43:53;96181.69;;;-1.38;100.00
11268;BME280;72685;47.474;9.416;2024-01-11T00:46:18;96177.28;;;-1.37;100.00
11268;BME280;72685;47.474;9.416;2024-01-11T00:48:44;96176.88;;;-1.41;100.00
11268;BME280;72685;47.474;9.416;2024-01-11T00:51:09;96179.09;;;-1.38;100.00
11268;BME280;72685;47.474;9.416;2024-01-11T00:53:35;96184.41;;;-1.51;100.00
11268;BME280;72685;47.474;9.416;2024-01-11T00:56:00;96181.59;;;-1.56;100.00
11268;BME280;72685;47.474;9.416;2024-01-11T00:58:26;96192.69;;;-1.54;100.00
11268;BME280;72685;47.474;9.416;2024-01-11T01:00:53;96190.66;;;-1.52;100.00
11268;BME280;72685;47.474;9.416;2024-01-11T01:03:19;96192.03;;;-1.49;100.00
11268;BME280;72685;47.474;9.416;2024-01-11T01:05:45;96190.84;;;-1.47;100.00
11268;BME280;72685;47.474;9.416;2024-01-11T01:08:11;96191.25;;;-1.50;100.00
11268;BME280;72685;47.474;9.416;2024-01-11T01:10:36;96193.38;;;-1.65;100.00
11268;BME280;72685;47.474;9.416;2024-01-11T01:13:02;96186.94;;;-1.69;100.00
11268;BME280;72685;47.474;9.416;2024-01-11T01:15:28;96194.97;;;-1.64;100.00
11268;BME280;72685;47.474;9.416;2024-01-11T01:17:53;96187.94;;;-1.64;100.00
11268;BME280;72685;47.474;9.416;2024-01-11T01:20:18;96190.53;;;-1.64;100.00
11268;BME280;72685;47.474;9.416;2024-01-11T01:22:44;96193.78;;;-1.68;100.00
11268;BME280;72685;47.474;9.416;2024-01-11T01:25:09;96197.03;;;-1.66;100.00
11268;BME280;72685;47.474;9.416;2024-01-11T01:27:34;96189.47;;;-1.56;100.00
11268;BME280;72685;47.474;9.416;2024-01-11T01:30:00;96203.00;;;-1.59;100.00
11268;BME280;72685;47.474;9.416;2024-01-11T01:32:25;96208.03;;;-1.57;100.00
11268;BME280;72685;47.474;9.416;2024-01-11T01:34:50;96206.22;;;-1.57;100.00
11268;BME280;72685;47.474;9.416;2024-01-11T01:37:16;96206.81;;;-1.55;100.00
11268;BME280;72685;47.474;9.416;2024-01-11T01:39:41;96216.75;;;-1.64;100.00
11268;BME280;72685;47.474;9.416;2024-01-11T01:42:07;96209.84;;;-1.58;100.00
11268;BME280;72685;47.474;9.416;2024-01-11T01:44:33;96216.72;;;-1.57;100.00
11268;BME280;72685;47.474;9.416;2024-01-11T01:46:59;96220.16;;;-1.63;100.00
11268;BME280;72685;47.474;9.416;2024-01-11T01:49:25;96220.78;;;-1.68;100.00
11268;BME280;72685;47.474;9.416;2024-01-11T01:51:52;96218.31;;;-1.63;100.00
11268;BME280;72685;47.474;9.416;2024-01-11T01:54:19;96228.44;;;-1.66;100.00
11268;BME280;72685;47.474;9.416;2024-01-11T01:56:45;96223.38;;;-1.61;100.00
11268;BME280;72685;47.474;9.416;2024-01-11T01:59:11;96221.16;;;-1.64;100.00
11268;BME280;72685;47.474;9.416;2024-01-11T02:01:38;96216.75;;;-1.64;100.00
11268;BME280;72685;47.474;9.416;2024-01-11T02:04:03;96223.56;;;-1.63;100.00
11268;BME280;72685;47.474;9.416;2024-01-11T02:06:29;96217.97;;;-1.66;100.00
11268;BME280;72685;47.474;9.416;2024-01-11T02:08:58;96228.13;;;-1.83;100.00
11268;BME280;72685;47.474;9.416;2024-01-11T02:11:24;96228.91;;;-1.76;100.00
11268;BME280;72685;47.474;9.416;2024-01-11T02:13:50;96230.31;;;-1.80;100.00
11268;BME280;72685;47.474;9.416;2024-01-11T02:16:15;96227.28;;;-1.77;100.00
11268;BME280;72685;47.474;9.416;2024-01-11T02:18:41;96235.34;;;-1.78;100.00
11268;BME280;72685;47.474;9.416;2024-01-11T02:21:08;96235.56;;;-1.80;100.00
11268;BME280;72685;47.474;9.416;2024-01-11T02:23:36;96239.25;;;-1.94;100.00
11268;BME280;72685;47.474;9.416;2024-01-11T02:26:05;96235.22;;;-1.90;100.00
11268;BME280;72685;47.474;9.416;2024-01-11T02:28:31;96233.81;;;-1.92;100.00
11268;BME280;72685;47.474;9.416;2024-01-11T02:30:56;96240.28;;;-1.95;100.00
11268;BME280;72685;47.474;9.416;2024-01-11T02:33:22;96240.72;;;-2.04;100.00
11268;BME280;72685;47.474;9.416;2024-01-11T02:35:47;96237.28;;;-1.98;100.00
11268;BME280;72685;47.474;9.416;2024-01-11T02:38:13;96238.53;;;-2.14;100.00
11268;BME280;72685;47.474;9.416;2024-01-11T02:40:40;96237.91;;;-2.09;100.00
11268;BME280;72685;47.474;9.416;2024-01-11T02:43:09;96236.72;;;-2.14;100.00
11268;BME280;72685;47.474;9.416;2024-01-11T02:45:35;96244.34;;;-2.05;100.00
11268;BME280;72685;47.474;9.416;2024-01-11T02:48:01;96233.06;;;-2.06;100.00
11268;BME280;72685;47.474;9.416;2024-01-11T02:50:26;96236.72;;;-2.20;100.00
11268;BME280;72685;47.474;9.416;2024-01-11T02:52:51;96233.50;;;-2.16;100.00
11268;BME280;72685;47.474;9.416;2024-01-11T02:55:17;96233.88;;;-2.05;100.00
11268;BME280;72685;47.474;9.416;2024-01-11T02:57:42;96238.31;;;-2.13;100.00
11268;BME280;72685;47.474;9.416;2024-01-11T03:00:08;96243.13;;;-2.09;100.00
11268;BME280;72685;47.474;9.416;2024-01-11T03:02:33;96239.16;;;-2.19;100.00
11268;BME280;72685;47.474;9.416;2024-01-11T03:04:58;96225.66;;;-2.16;100.00
11268;BME280;72685;47.474;9.416;2024-01-11T03:07:24;96231.88;;;-2.10;100.00
11268;BME280;72685;47.474;9.416;2024-01-11T03:09:49;96228.28;;;-2.22;100.00
11268;BME280;72685;47.474;9.416;2024-01-11T03:12:14;96224.47;;;-2.26;100.00
11268;BME280;72685;47.474;9.416;2024-01-11T03:14:40;96228.69;;;-2.19;100.00
11268;BME280;72685;47.474;9.416;2024-01-11T03:17:05;96226.50;;;-2.28;100.00
11268;BME280;72685;47.474;9.416;2024-01-11T03:19:31;96226.47;;;-2.22;100.00
11268;BME280;72685;47.474;9.416;2024-01-11T03:21:56;96215.00;;;-2.14;100.00
11268;BME280;72685;47.474;9.416;2024-01-11T03:24:21;96220.69;;;-2.37;100.00
11268;BME280;72685;47.474;9.416;2024-01-11T03:26:47;96219.84;;;-2.24;100.00
11268;BME280;72685;47.474;9.416;2024-01-11T03:29:13;96221.06;;;-2.27;100.00
11268;BME280;72685;47.474;9.416;2024-01-11T03:31:39;96223.84;;;-2.15;100.00
11268;BME280;72685;47.474;9.416;2024-01-11T03:34:07;96220.63;;;-2.17;100.00
11268;BME280;72685;47.474;9.416;2024-01-11T03:36:33;96214.81;;;-2.26;100.00
11268;BME280;72685;47.474;9.416;2024-01-11T03:38:58;96220.66;;;-2.24;100.00
11268;BME280;72685;47.474;9.416;2024-01-11T03:41:23;96227.31;;;-2.28;100.00
11268;BME280;72685;47.474;9.416;2024-01-11T03:43:49;96220.09;;;-2.45;100.00
11268;BME280;72685;47.474;9.416;2024-01-11T03:46:15;96221.09;;;-2.33;100.00
11268;BME280;72685;47.474;9.416;2024-01-11T03:48:40;96221.13;;;-2.46;100.00
11268;BME280;72685;47.474;9.416;2024-01-11T03:51:06;96217.47;;;-2.39;100.00
11268;BME280;72685;47.474;9.416;2024-01-11T03:53:35;96213.69;;;-2.43;100.00
11268;BME280;72685;47.474;9.416;2024-01-11T03:56:01;96221.13;;;-2.40;100.00
11268;BME280;72685;47.474;9.416;2024-01-11T03:58:26;96208.63;;;-2.44;100.00
11268;BME280;72685;47.474;9.416;2024-01-11T04:00:51;96216.09;;;-2.48;100.00
11268;BME280;72685;47.474;9.416;2024-01-11T04:03:17;96215.50;;;-2.50;100.00
11268;BME280;72685;47.474;9.416;2024-01-11T04:05:42;96216.28;;;-2.43;100.00
11268;BME280;72685;47.474;9.416;2024-01-11T04:08:07;96216.88;;;-2.41;100.00
11268;BME280;72685;47.474;9.416;2024-01-11T04:10:33;96217.31;;;-2.57;100.00
11268;BME280;72685;47.474;9.416;2024-01-11T04:12:58;96217.06;;;-2.42;100.00
11268;BME280;72685;47.474;9.416;2024-01-11T04:15:24;96220.72;;;-2.43;100.00
11268;BME280;72685;47.474;9.416;2024-01-11T04:17:49;96220.31;;;-2.47;100.00
11268;BME280;72685;47.474;9.416;2024-01-11T04:20:15;96227.34;;;-2.41;100.00
11268;BME280;72685;47.474;9.416;2024-01-11T04:22:40;96227.34;;;-2.34;100.00
11268;BME280;72685;47.474;9.416;2024-01-11T04:25:06;96226.38;;;-2.46;100.00
11268;BME280;72685;47.474;9.416;2024-01-11T04:27:31;96220.72;;;-2.43;100.00
11268;BME280;72685;47.474;9.416;2024-01-11T04:29:57;96220.09;;;-2.39;100.00
11268;BME280;72685;47.474;9.416;2024-01-11T04:32:22;96212.66;;;-2.42;100.00
11268;BME280;72685;47.474;9.416;2024-01-11T04:34:47;96221.50;;;-2.36;100.00
11268;BME280;72685;47.474;9.416;2024-01-11T04:37:13;96213.25;;;-2.40;100.00
11268;BME280;72685;47.474;9.416;2024-01-11T04:39:38;96211.06;;;-2.43;100.00
11268;BME280;72685;47.474;9.416;2024-01-11T04:42:04;96210.66;;;-2.40;100.00
11268;BME280;72685;47.474;9.416;2024-01-11T04:44:29;96213.03;;;-2.38;100.00
11268;BME280;72685;47.474;9.416;2024-01-11T04:46:55;96217.06;;;-2.36;100.00
11268;BME280;72685;47.474;9.416;2024-01-11T04:49:20;96215.88;;;-2.40;100.00
11268;BME280;72685;47.474;9.416;2024-01-11T04:51:45;96218.94;;;-2.49;100.00
11268;BME280;72685;47.474;9.416;2024-01-11T04:54:11;96212.03;;;-2.37;100.00
11268;BME280;72685;47.474;9.416;2024-01-11T04:56:36;96210.84;;;-2.41;100.00
11268;BME280;72685;47.474;9.416;2024-01-11T04:59:01;96216.09;;;-2.48;100.00
11268;BME280;72685;47.474;9.416;2024-01-11T05:01:27;96209.44;;;-2.44;100.00
11268;BME280;72685;47.474;9.416;2024-01-11T05:03:52;96213.41;;;-2.28;100.00
11268;BME280;72685;47.474;9.416;2024-01-11T05:06:18;96211.44;;;-2.39;100.00
11268;BME280;72685;47.474;9.416;2024-01-11T05:08:50;96208.66;;;-2.51;100.00
11268;BME280;72685;47.474;9.416;2024-01-11T05:11:20;96211.44;;;-2.39;100.00
11268;BME280;72685;47.474;9.416;2024-01-11T05:13:46;96209.44;;;-2.37;100.00
11268;BME280;72685;47.474;9.416;2024-01-11T05:16:26;96204.81;;;-2.48;100.00
11268;BME280;72685;47.474;9.416;2024-01-11T05:18:52;96203.66;;;-2.52;100.00
11268;BME280;72685;47.474;9.416;2024-01-11T05:21:19;96206.44;;;-2.54;100.00
11268;BME280;72685;47.474;9.416;2024-01-11T05:23:44;96199.19;;;-2.52;100.00
11268;BME280;72685;47.474;9.416;2024-01-11T05:26:10;96199.59;;;-2.48;100.00
11268;BME280;72685;47.474;9.416;2024-01-11T05:28:36;96202.41;;;-2.43;100.00
11268;BME280;72685;47.474;9.416;2024-01-11T05:31:05;96205.00;;;-2.37;100.00
11268;BME280;72685;47.474;9.416;2024-01-11T05:33:31;96199.16;;;-2.39;100.00
11268;BME280;72685;47.474;9.416;2024-01-11T05:35:56;96198.75;;;-2.42;100.00
11268;BME280;72685;47.474;9.416;2024-01-11T05:38:22;96206.84;;;-2.50;100.00
11268;BME280;72685;47.474;9.416;2024-01-11T05:40:47;96199.59;;;-2.55;100.00
11268;BME280;72685;47.474;9.416;2024-01-11T05:43:12;96203.41;;;-2.44;100.00
11268;BME280;72685;47.474;9.416;2024-01-11T05:45:38;96196.56;;;-2.52;100.00
11268;BME280;72685;47.474;9.416;2024-01-11T05:48:03;96201.63;;;-2.50;100.00
11268;BME280;72685;47.474;9.416;2024-01-11T05:50:31;96192.81;;;-2.62;100.00
11268;BME280;72685;47.474;9.416;2024-01-11T05:52:56;96210.06;;;-2.55;100.00
11268;BME280;72685;47.474;9.416;2024-01-11T05:55:22;96208.91;;;-2.59;100.00
11268;BME280;72685;47.474;9.416;2024-01-11T05:57:48;96213.50;;;-2.61;100.00
11268;BME280;72685;47.474;9.416;2024-01-11T06:00:14;96213.47;;;-2.48;100.00
11268;BME280;72685;47.474;9.416;2024-01-11T06:02:40;96213.91;;;-2.57;100.00
11268;BME280;72685;47.474;9.416;2024-01-11T06:05:08;96219.50;;;-2.41;100.00
11268;BME280;72685;47.474;9.416;2024-01-11T06:07:34;96224.19;;;-2.62;100.00
11268;BME280;72685;47.474;9.416;2024-01-11T06:09:59;96227.41;;;-2.67;100.00
11268;BME280;72685;47.474;9.416;2024-01-11T06:12:26;96234.63;;;-2.56;100.00
11268;BME280;72685;47.474;9.416;2024-01-11T06:14:51;96245.53;;;-2.65;100.00
11268;BME280;72685;47.474;9.416;2024-01-11T06:17:17;96232.44;;;-2.65;100.00
11268;BME280;72685;47.474;9.416;2024-01-11T06:19:42;96238.66;;;-2.60;100.00
11268;BME280;72685;47.474;9.416;2024-01-11T06:22:07;96243.06;;;-2.54;100.00
11268;BME280;72685;47.474;9.416;2024-01-11T06:24:33;96242.66;;;-2.51;100.00
11268;BME280;72685;47.474;9.416;2024-01-11T06:26:58;96238.66;;;-2.53;100.00
11268;BME280;72685;47.474;9.416;2024-01-11T06:29:23;96241.84;;;-2.51;100.00
11268;BME280;72685;47.474;9.416;2024-01-11T06:31:49;96233.03;;;-2.57;100.00
11268;BME280;72685;47.474;9.416;2024-01-11T06:34:14;96244.28;;;-2.50;100.00
11268;BME280;72685;47.474;9.416;2024-01-11T06:36:40;96243.06;;;-2.54;100.00
11268;BME280;72685;47.474;9.416;2024-01-11T06:39:05;96247.50;;;-2.54;100.00
11268;BME280;72685;47.474;9.416;2024-01-11T06:41:31;96260.97;;;-2.57;100.00
11268;BME280;72685;47.474;9.416;2024-01-11T06:43:56;96264.22;;;-2.69;100.00
11268;BME280;72685;47.474;9.416;2024-01-11T06:46:22;96265.00;;;-2.61;100.00
11268;BME280;72685;47.474;9.416;2024-01-11T06:48:48;96271.03;;;-2.61;100.00
11268;BME280;72685;47.474;9.416;2024-01-11T06:51:21;96267.25;;;-2.72;100.00
11268;BME280;72685;47.474;9.416;2024-01-11T06:53:46;96277.09;;;-2.60;100.00
11268;BME280;72685;47.474;9.416;2024-01-11T06:56:30;96280.13;;;-2.70;100.00
11268;BME280;72685;47.474;9.416;2024-01-11T06:58:55;96281.31;;;-2.73;100.00
11268;BME280;72685;47.474;9.416;2024-01-11T07:01:21;96283.34;;;-2.75;100.00
11268;BME280;72685;47.474;9.416;2024-01-11T07:03:46;96288.75;;;-2.70;100.00
11268;BME280;72685;47.474;9.416;2024-01-11T07:06:11;96281.72;;;-2.62;100.00
11268;BME280;72685;47.474;9.416;2024-01-11T07:08:37;96289.75;;;-2.64;100.00
11268;BME280;72685;47.474;9.416;2024-01-11T07:11:03;96290.56;;;-2.77;100.00
11268;BME280;72685;47.474;9.416;2024-01-11T07:13:29;96288.59;;;-2.68;100.00
11268;BME280;72685;47.474;9.416;2024-01-11T07:15:54;96298.63;;;-2.65;100.00
11268;BME280;72685;47.474;9.416;2024-01-11T07:18:21;96292.19;;;-2.76;100.00
11268;BME280;72685;47.474;9.416;2024-01-11T07:20:46;96297.63;;;-2.77;100.00
11268;BME280;72685;47.474;9.416;2024-01-11T07:23:13;96306.47;;;-2.72;100.00
11268;BME280;72685;47.474;9.416;2024-01-11T07:25:39;96303.88;;;-2.72;100.00
11268;BME280;72685;47.474;9.416;2024-01-11T07:28:05;96295.22;;;-2.85;100.00
11268;BME280;72685;47.474;9.416;2024-01-11T07:30:30;96298.00;;;-2.74;100.00
11268;BME280;72685;47.474;9.416;2024-01-11T07:32:55;96307.06;;;-2.70;100.00
11268;BME280;72685;47.474;9.416;2024-01-11T07:35:21;96304.06;;;-2.86;100.00
11268;BME280;72685;47.474;9.416;2024-01-11T07:37:46;96310.09;;;-2.79;100.00
11268;BME280;72685;47.474;9.416;2024-01-11T07:40:12;96308.28;;;-2.72;100.00
11268;BME280;72685;47.474;9.416;2024-01-11T07:42:39;96306.47;;;-2.98;100.00
11268;BME280;72685;47.474;9.416;2024-01-11T07:45:08;96305.06;;;-2.81;100.00
11268;BME280;72685;47.474;9.416;2024-01-11T07:47:35;96312.91;;;-2.94;100.00
11268;BME280;72685;47.474;9.416;2024-01-11T07:50:04;96307.28;;;-2.84;100.00
11268;BME280;72685;47.474;9.416;2024-01-11T07:52:31;96310.91;;;-2.72;100.00
11268;BME280;72685;47.474;9.416;2024-01-11T07:54:57;96314.91;;;-2.76;100.00
11268;BME280;72685;47.474;9.416;2024-01-11T07:57:25;96320.75;;;-2.61;100.00
11268;BME280;72685;47.474;9.416;2024-01-11T07:59:50;96317.13;;;-2.60;100.00
11268;BME280;72685;47.474;9.416;2024-01-11T08:02:16;96320.97;;;-2.62;100.00
11268;BME280;72685;47.474;9.416;2024-01-11T08:04:41;96322.94;;;-2.64;100.00
11268;BME280;72685;47.474;9.416;2024-01-11T08:07:06;96330.59;;;-2.76;100.00
11268;BME280;72685;47.474;9.416;2024-01-11T08:09:32;96325.78;;;-2.66;100.00
11268;BME280;72685;47.474;9.416;2024-01-11T08:11:57;96332.63;;;-2.58;100.00
11268;BME280;72685;47.474;9.416;2024-01-11T08:14:22;96327.19;;;-2.70;100.00
11268;BME280;72685;47.474;9.416;2024-01-11T08:16:49;96330.63;;;-2.63;100.00
11268;BME280;72685;47.474;9.416;2024-01-11T08:19:14;96333.03;;;-2.68;100.00
11268;BME280;72685;47.474;9.416;2024-01-11T08:21:40;96338.28;;;-2.68;100.00
11268;BME280;72685;47.474;9.416;2024-01-11T08:24:07;96339.25;;;-2.95;100.00
11268;BME280;72685;47.474;9.416;2024-01-11T08:26:32;96336.44;;;-2.74;100.00
11268;BME280;72685;47.474;9.416;2024-01-11T08:28:58;96318.75;;;-2.65;100.00
11268;BME280;72685;47.474;9.416;2024-01-11T08:31:23;96321.97;;;-2.63;100.00
11268;BME280;72685;47.474;9.416;2024-01-11T08:33:48;96325.56;;;-2.64;100.00
11268;BME280;72685;47.474;9.416;2024-01-11T08:36:15;96333.63;;;-2.59;100.00
11268;BME280;72685;47.474;9.416;2024-01-11T08:38:40;96322.94;;;-2.71;100.00
11268;BME280;72685;47.474;9.416;2024-01-11T08:41:06;96334.22;;;-2.64;100.00
11268;BME280;72685;47.474;9.416;2024-01-11T08:43:32;96338.66;;;-2.64;100.00
11268;BME280;72685;47.474;9.416;2024-01-11T08:45:58;96349.72;;;-2.56;100.00
11268;BME280;72685;47.474;9.416;2024-01-11T08:48:23;96343.09;;;-2.58;100.00
11268;BME280;72685;47.474;9.416;2024-01-11T08:50:49;96344.28;;;-2.48;100.00
11268;BME280;72685;47.474;9.416;2024-01-11T08:53:14;96352.75;;;-2.52;100.00
11268;BME280;72685;47.474;9.416;2024-01-11T08:55:41;96347.31;;;-2.57;100.00
11268;BME280;72685;47.474;9.416;2024-01-11T08:58:06;96350.91;;;-2.52;100.00
11268;BME280;72685;47.474;9.416;2024-01-11T09:00:32;96354.72;;;-2.74;100.00
11268;BME280;72685;47.474;9.416;2024-01-11T09:02:57;96353.94;;;-2.55;100.00
11268;BME280;72685;47.474;9.416;2024-01-11T09:05:23;96361.59;;;-2.53;100.00
11268;BME280;72685;47.474;9.416;2024-01-11T09:07:48;96353.75;;;-2.47;100.00
11268;BME280;72685;47.474;9.416;2024-01-11T09:10:13;96363.22;;;-2.59;100.00
11268;BME280;72685;47.474;9.416;2024-01-11T09:12:39;96359.78;;;-2.59;100.00
11268;BME280;72685;47.474;9.416;2024-01-11T09:15:04;96354.16;;;-2.56;100.00
11268;BME280;72685;47.474;9.416;2024-01-11T09:17:30;96372.06;;;-2.60;100.00
11268;BME280;72685;47.474;9.416;2024-01-11T09:19:55;96367.63;;;-2.59;100.00
11268;BME280;72685;47.474;9.416;2024-01-11T09:22:21;96363.81;;;-2.57;100.00
11268;BME280;72685;47.474;9.416;2024-01-11T09:24:46;96371.44;;;-2.42;100.00
11268;BME280;72685;47.474;9.416;2024-01-11T09:27:11;96374.84;;;-2.42;100.00
11268;BME280;72685;47.474;9.416;2024-01-11T09:29:45;96361.78;;;-2.35;100.00
11268;BME280;72685;47.474;9.416;2024-01-11T09:32:11;96369.44;;;-2.47;100.00
11268;BME280;72685;47.474;9.416;2024-01-11T09:34:37;96372.25;;;-2.42;100.00
11268;BME280;72685;47.474;9.416;2024-01-11T09:37:02;96368.81;;;-2.42;100.00
11268;BME280;72685;47.474;9.416;2024-01-11T09:39:29;96367.81;;;-2.54;100.00
11268;BME280;72685;47.474;9.416;2024-01-11T09:41:59;96371.22;;;-2.74;100.00
11268;BME280;72685;47.474;9.416;2024-01-11T09:44:26;96375.66;;;-2.74;100.00
11268;BME280;72685;47.474;9.416;2024-01-11T09:46:52;96380.72;;;-2.46;100.00
11268;BME280;72685;47.474;9.416;2024-01-11T09:49:19;96379.91;;;-2.53;100.00
11268;BME280;72685;47.474;9.416;2024-01-11T09:51:47;96385.94;;;-2.46;100.00
11268;BME280;72685;47.474;9.416;2024-01-11T09:54:13;96379.91;;;-2.40;100.00
11268;BME280;72685;47.474;9.416;2024-01-11T09:56:40;96388.56;;;-2.46;100.00
11268;BME280;72685;47.474;9.416;2024-01-11T09:59:06;96387.34;;;-2.50;100.00
11268;BME280;72685;47.474;9.416;2024-01-11T10:01:34;96399.22;;;-2.54;100.00
11268;BME280;72685;47.474;9.416;2024-01-11T10:04:01;96396.81;;;-2.56;100.00
11268;BME280;72685;47.474;9.416;2024-01-11T10:06:29;96393.00;;;-2.40;100.00
11268;BME280;72685;47.474;9.416;2024-01-11T10:08:58;96388.56;;;-2.46;100.00
11268;BME280;72685;47.474;9.416;2024-01-11T10:11:23;96387.75;;;-2.34;100.00
11268;BME280;72685;47.474;9.416;2024-01-11T10:13:56;96380.72;;;-2.27;100.00
11268;BME280;72685;47.474;9.416;2024-01-11T10:16:21;96386.31;;;-2.30;100.00
11268;BME280;72685;47.474;9.416;2024-01-11T10:18:47;96383.09;;;-2.19;100.00
11268;BME280;72685;47.474;9.416;2024-01-11T10:21:12;96383.13;;;-2.38;100.00
11268;BME280;72685;47.474;9.416;2024-01-11T10:23:37;96390.38;;;-2.34;100.00
11268;BME280;72685;47.474;9.416;2024-01-11T10:26:04;96388.16;;;-2.30;100.00
11268;BME280;72685;47.474;9.416;2024-01-11T10:28:30;96383.69;;;-2.30;100.00
11268;BME280;72685;47.474;9.416;2024-01-11T10:30:56;96387.53;;;-2.39;100.00
11268;BME280;72685;47.474;9.416;2024-01-11T10:33:22;96403.44;;;-2.47;100.00
11268;BME280;72685;47.474;9.416;2024-01-11T10:35:49;96407.47;;;-2.44;100.00
11268;BME280;72685;47.474;9.416;2024-01-11T10:38:15;96412.53;;;-2.36;100.00
11268;BME280;72685;47.474;9.416;2024-01-11T10:40:42;96412.09;;;-2.46;100.00
11268;BME280;72685;47.474;9.416;2024-01-11T10:43:09;96400.63;;;-2.39;100.00
11268;BME280;72685;47.474;9.416;2024-01-11T10:45:37;96404.25;;;-2.33;100.00
11268;BME280;72685;47.474;9.416;2024-01-11T10:48:10;96402.06;;;-2.43;100.00
11268;BME280;72685;47.474;9.416;2024-01-11T10:50:42;96400.84;;;-2.53;100.00
11268;BME280;72685;47.474;9.416;2024-01-11T10:53:24;96402.22;;;-2.51;100.00
11268;BME280;72685;47.474;9.416;2024-01-11T10:55:50;96403.22;;;-2.45;100.00
11268;BME280;72685;47.474;9.416;2024-01-11T10:58:17;96403.44;;;-2.27;100.00
11268;BME280;72685;47.474;9.416;2024-01-11T11:00:44;96397.22;;;-2.46;100.00
11268;BME280;72685;47.474;9.416;2024-01-11T11:03:11;96394.97;;;-2.49;100.00
11268;BME280;72685;47.474;9.416;2024-01-11T11:05:38;96389.38;;;-2.46;100.00
11268;BME280;72685;47.474;9.416;2024-01-11T11:08:04;96388.97;;;-2.56;100.00
11268;BME280;72685;47.474;9.416;2024-01-11T11:10:32;96388.75;;;-2.61;100.00
11268;BME280;72685;47.474;9.416;2024-01-11T11:12:59;96380.91;;;-2.48;100.00
11268;BME280;72685;47.474;9.416;2024-01-11T11:15:26;96374.66;;;-2.53;100.00
11268;BME280;72685;47.474;9.416;2024-01-11T11:17:52;96367.63;;;-2.46;100.00
11268;BME280;72685;47.474;9.416;2024-01-11T11:20:18;96366.41;;;-2.63;100.00
11268;BME280;72685;47.474;9.416;2024-01-11T11:22:49;96364.41;;;-2.42;100.00
11268;BME280;72685;47.474;9.416;2024-01-11T11:25:29;96350.91;;;-2.45;100.00
11268;BME280;72685;47.474;9.416;2024-01-11T11:27:55;96344.69;;;-2.38;100.00
11268;BME280;72685;47.474;9.416;2024-01-11T11:30:20;96337.22;;;-2.41;100.00
11268;BME280;72685;47.474;9.416;2024-01-11T11:32:46;96339.44;;;-2.44;100.00
11268;BME280;72685;47.474;9.416;2024-01-11T11:35:11;96343.25;;;-2.27;100.00
11268;BME280;72685;47.474;9.416;2024-01-11T11:37:38;96334.38;;;-2.26;100.00
11268;BME280;72685;47.474;9.416;2024-01-11T11:40:08;96326.53;;;-2.39;100.00
11268;BME280;72685;47.474;9.416;2024-01-11T11:42:36;96319.72;;;-2.47;100.00
11268;BME280;72685;47.474;9.416;2024-01-11T11:45:02;96311.47;;;-2.31;100.00
11268;BME280;72685;47.474;9.416;2024-01-11T11:47:34;96302.78;;;-2.25;100.00
11268;BME280;72685;47.474;9.416;2024-01-11T11:50:04;96309.03;;;-2.26;100.00
11268;BME280;72685;47.474;9.416;2024-01-11T11:52:32;96305.81;;;-2.34;100.00
11268;BME280;72685;47.474;9.416;2024-01-11T11:54:59;96302.56;;;-2.30;100.00
11268;BME280;72685;47.474;9.416;2024-01-11T11:57:26;96292.91;;;-2.23;100.00
11268;BME280;72685;47.474;9.416;2024-01-11T11:59:55;96294.31;;;-2.20;100.00
11268;BME280;72685;47.474;9.416;2024-01-11T12:02:21;96292.53;;;-2.33;100.00
11268;BME280;72685;47.474;9.416;2024-01-11T12:04:47;96286.88;;;-2.23;100.00
11268;BME280;72685;47.474;9.416;2024-01-11T12:07:14;96290.91;;;-2.21;100.00
11268;BME280;72685;47.474;9.416;2024-01-11T12:09:40;96297.53;;;-2.11;100.00
11268;BME280;72685;47.474;9.416;2024-01-11T12:12:06;96307.84;;;-2.36;100.00
11268;BME280;72685;47.474;9.416;2024-01-11T12:14:31;96304.81;;;-2.27;100.00
11268;BME280;72685;47.474;9.416;2024-01-11T12:16:58;96309.84;;;-2.38;100.00
11268;BME280;72685;47.474;9.416;2024-01-11T12:19:24;96312.88;;;-2.48;100.00
11268;BME280;72685;47.474;9.416;2024-01-11T12:21:49;96308.28;;;-2.46;100.00
11268;BME280;72685;47.474;9.416;2024-01-11T12:24:18;96295.53;;;-2.23;100.00
11268;BME280;72685;47.474;9.416;2024-01-11T12:26:44;96307.63;;;-2.22;100.00
11268;BME280;72685;47.474;9.416;2024-01-11T12:29:13;96314.47;;;-2.27;100.00
11268;BME280;72685;47.474;9.416;2024-01-11T12:31:38;96306.03;;;-2.49;100.00
11268;BME280;72685;47.474;9.416;2024-01-11T12:34:04;96306.84;;;-2.55;100.00
11268;BME280;72685;47.474;9.416;2024-01-11T12:36:30;96313.69;;;-2.54;100.00
11268;BME280;72685;47.474;9.416;2024-01-11T12:38:57;96315.09;;;-2.51;100.00
11268;BME280;72685;47.474;9.416;2024-01-11T12:41:24;96315.31;;;-2.53;100.00
11268;BME280;72685;47.474;9.416;2024-01-11T12:43:49;96315.91;;;-2.38;100.00